Seago Bremerhaven — OXVA2 — position and weather

sailwx.info

Track history (hours):
 
Tides and Currents Weather Stations Pressure Air Temp Water Temp Dewpoint Dewpoint Depression Visibility Wind Speed Wind Dir Waves Ship Positions

Seago Bremerhaven

Last reported at 2018-Apr-23 10:17 UTC. Time now 2018-Apr-23 11:54 UTC.
Position N 34°31' E 032°39'.

Length 294 m; draft 12.5 m.

Type: Cargo ship. MMSI: 219118000.

Date/timePositionNaut miles runAvg speedWind from/ knotsBaromVisibWave heightAir tempDewpointWater temp
2018-Apr-23 10:17N 34°31' E 032°39'516.9
2018-Apr-23 10:01N 34°31' E 032°33'1517.4
2018-Apr-23 09:10N 34°31' E 032°15'319.0
2018-Apr-23 08:59N 34°31' E 032°11'1019.3
2018-Apr-23 08:29N 34°32' E 031°59'919.1
2018-Apr-23 08:00N 34°32' E 031°48'919.0
2018-Apr-23 07:30N 34°32' E 031°37'1418.9
2018-Apr-23 06:46N 34°33' E 031°20'518.6
2018-Apr-23 06:29N 34°33' E 031°14'1118.7
2018-Apr-23 05:52N 34°33' E 030°60'718.6
2018-Apr-23 05:30N 34°33' E 030°52'1118.4
2018-Apr-23 04:55N 34°34' E 030°38'1518.5
2018-Apr-23 04:08N 34°34' E 030°21'418.9
2018-Apr-23 03:57N 34°34' E 030°16'74019.1
2018-Apr-21 13:09N 36°15' E 015°17'421.4
2018-Apr-21 12:59N 36°15' E 015°13'1222.1
2018-Apr-21 12:26N 36°17' E 014°58'920.9
2018-Apr-21 11:59N 36°18' E 014°47'1120.6
2018-Apr-21 11:28N 36°21' E 014°34'613.6
2018-Apr-21 11:00N 36°23' E 014°26'1020.1
2018-Apr-21 10:30N 36°25' E 014°14'1018.9
2018-Apr-21 10:00N 36°28' E 014°03'1019.7
2018-Apr-21 09:31N 36°31' E 013°51'1019.7
2018-Apr-21 09:00N 36°34' E 013°40'1120.9
2018-Apr-21 08:28N 36°38' E 013°26'1021.3
2018-Apr-21 07:59N 36°40' E 013°14'816.8
2018-Apr-21 07:30N 36°42' E 013°04'1019.1
2018-Apr-21 07:00N 36°45' E 012°53'1019.2
2018-Apr-21 06:30N 36°49' E 012°42'1020.0
2018-Apr-21 06:00N 36°52' E 012°29'918.8
2018-Apr-21 05:30N 36°55' E 012°18'1120.5
2018-Apr-21 04:58N 36°58' E 012°05'1020.5
2018-Apr-21 04:29N 37°02' E 011°54'82719.0
2018-Apr-19 08:57N 36°01' W 005°13'920.3
2018-Apr-19 08:31N 35°58' W 005°23'17218.4
2018-Apr-18 23:08N 36°28' W 008°53'217.9
2018-Apr-18 23:00N 36°29' W 008°56'8817.4
2018-Apr-18 17:55N 37°46' W 009°49'819.7
2018-Apr-18 17:29N 37°55' W 009°51'919.4
2018-Apr-18 17:00N 38°04' W 009°53'1019.2
2018-Apr-18 16:30N 38°13' W 009°57'1019.4
2018-Apr-18 16:01N 38°22' W 009°60'1119.7
2018-Apr-18 15:28N 38°33' W 010°03'919.7
2018-Apr-18 15:00N 38°42' W 010°05'1019.6
2018-Apr-18 14:30N 38°51' W 010°05'919.0
2018-Apr-18 14:00N 39°01' W 010°05'1019.0
2018-Apr-18 13:30N 39°10' W 010°05'1019.3
2018-Apr-18 13:00N 39°20' W 010°05'1019.6
2018-Apr-18 12:30N 39°30' W 010°05'1019.6
2018-Apr-18 11:59N 39°40' W 010°05'28615.9
2018-Apr-17 17:58N 44°11' W 008°02'33615.5
2018-Apr-16 20:15N 49°19' W 004°47'516.6
2018-Apr-16 19:56N 49°21' W 004°40'2815.6
2018-Apr-16 18:10N 49°33' W 004°01'315.2
2018-Apr-16 17:59N 49°34' W 003°58'916.6
2018-Apr-16 17:28N 49°38' W 003°46'817.1
2018-Apr-16 17:00N 49°42' W 003°35'917.6
2018-Apr-16 16:30N 49°47' W 003°24'918.5
2018-Apr-16 16:00N 49°52' W 003°12'1019.7
2018-Apr-16 15:30N 49°57' W 002°59'1020.6
2018-Apr-16 15:00N 50°01' W 002°44'1221.9
2018-Apr-16 14:27N 50°05' W 002°26'1222.6
2018-Apr-16 13:56N 50°08' W 002°08'1022.9
2018-Apr-16 13:31N 50°11' W 001°54'1122.4
2018-Apr-16 13:00N 50°13' W 001°37'1121.6
2018-Apr-16 12:31N 50°16' W 001°21'1120.6
2018-Apr-16 12:00N 50°19' W 001°05'1019.5
2018-Apr-16 11:30N 50°21' W 000°50'1018.5
2018-Apr-16 10:59N 50°24' W 000°35'918.1
2018-Apr-16 10:30N 50°26' W 000°22'917.6
2018-Apr-16 10:00N 50°29' W 000°09'917.5
2018-Apr-16 09:30N 50°31' E 000°04'817.0
2018-Apr-16 09:00N 50°33' E 000°17'816.7
2018-Apr-16 08:30N 50°35' E 000°30'917.1
2018-Apr-16 08:00N 50°39' E 000°42'918.2
2018-Apr-16 07:30N 50°45' E 000°53'1018.6
2018-Apr-16 06:59N 50°50' E 001°05'1219.5
2018-Apr-16 06:21N 50°58' E 001°21'720.2
2018-Apr-16 06:00N 51°03' E 001°29'1019.1
2018-Apr-16 05:30N 51°10' E 001°39'918.4
2018-Apr-16 05:00N 51°16' E 001°50'917.5
2018-Apr-16 04:30N 51°23' E 001°57'815.6
2018-Apr-16 04:00N 51°23' E 002°10'815.7
2018-Apr-16 03:30N 51°22' E 002°22'815.3
2018-Apr-16 03:00N 51°23' E 002°35'713.0
2018-Apr-16 02:30N 51°24' E 002°45'612.2
2018-Apr-16 02:00N 51°25' E 002°54'815.4
2018-Apr-16 01:30N 51°24' E 003°06'714.9
2018-Apr-16 01:00N 51°25' E 003°18'714.0
2018-Apr-16 00:31N 51°25' E 003°30'5 9.4
2018-Apr-16 00:00N 51°26' E 003°37'4 8.2
2018-Apr-15 23:30N 51°24' E 003°43'612.6
2018-Apr-15 23:00N 51°21' E 003°51'611.1
2018-Apr-15 22:30N 51°25' E 003°58'3 6.7
2018-Apr-15 22:00N 51°23' E 004°02'5 9.7
2018-Apr-15 21:30N 51°23' E 004°10'4 8.2
2018-Apr-15 21:00N 51°21' E 004°16'1 1.3
2018-Apr-15 20:26N 51°20' E 004°16'0 0.0
2018-Apr-15 19:58N 51°20' E 004°16'0 0.0
2018-Apr-15 19:29N 51°20' E 004°16'0 0.0
2018-Apr-15 18:55N 51°20' E 004°16'0 0.0
2018-Apr-15 18:28N 51°20' E 004°16'0 0.0
2018-Apr-15 18:01N 51°20' E 004°16'0 0.0
2018-Apr-15 17:30N 51°20' E 004°16'0 0.0
2018-Apr-15 17:00N 51°20' E 004°16'0 0.0
2018-Apr-15 16:30N 51°20' E 004°16'0 0.0
2018-Apr-15 16:00N 51°20' E 004°16'0 0.0
2018-Apr-15 15:28N 51°21' E 004°16'0 0.0
2018-Apr-15 15:00N 51°20' E 004°16'0 0.0
2018-Apr-15 14:30N 51°20' E 004°16'0 0.0
2018-Apr-15 14:00N 51°20' E 004°16'0 0.0
2018-Apr-15 13:31N 51°20' E 004°16'0 0.0
2018-Apr-15 12:53N 51°20' E 004°16'0 0.0
2018-Apr-15 12:30N 51°20' E 004°16'0 0.0
2018-Apr-15 11:56N 51°20' E 004°16'0 0.0
2018-Apr-15 11:29N 51°20' E 004°16'0 0.0
2018-Apr-15 11:00N 51°20' E 004°16'0 0.0
2018-Apr-15 10:30N 51°20' E 004°16'0 0.0
2018-Apr-15 10:00N 51°20' E 004°16'0 0.0
2018-Apr-15 09:30N 51°20' E 004°16'0 0.0
2018-Apr-15 09:00N 51°20' E 004°16'0 0.0
2018-Apr-15 08:30N 51°20' E 004°16'0 0.0
2018-Apr-15 08:00N 51°20' E 004°16'0 0.0
2018-Apr-15 07:31N 51°20' E 004°16'0 0.0
2018-Apr-15 07:00N 51°20' E 004°16'0 0.0
2018-Apr-15 06:31N 51°20' E 004°16'0 0.0
2018-Apr-15 06:00N 51°20' E 004°16'0 0.0
2018-Apr-15 05:29N 51°20' E 004°16'0 0.0
2018-Apr-15 05:00N 51°20' E 004°16'0 0.0
2018-Apr-15 04:31N 51°20' E 004°16'0 0.0
2018-Apr-15 03:59N 51°20' E 004°16'0 0.0
2018-Apr-15 03:31N 51°20' E 004°16'0 0.2
2018-Apr-15 03:00N 51°21' E 004°16'1 2.4
2018-Apr-15 02:30N 51°21' E 004°15'4 7.3
2018-Apr-15 02:00N 51°23' E 004°09'5 9.8
2018-Apr-15 01:30N 51°24' E 004°02'4 7.7
2018-Apr-15 01:00N 51°23' E 003°56'612.6
2018-Apr-15 00:30N 51°21' E 003°46'510.9
2018-Apr-15 00:01N 51°26' E 003°41'612.9
2018-Apr-14 23:31N 51°25' E 003°31'1122.2
2018-Apr-14 23:01N 51°24' E 003°13'918.0
2018-Apr-14 22:31N 51°25' E 002°59'816.8
2018-Apr-14 22:00N 51°32' E 003°07'917.4
2018-Apr-14 21:31N 51°40' E 003°12'5 9.5
2018-Apr-14 20:59N 51°45' E 003°14'4 8.0
2018-Apr-14 20:30N 51°49' E 003°17'4 8.3
2018-Apr-14 19:59N 51°53' E 003°19'5 9.3
2018-Apr-14 19:26N 51°58' E 003°20'611.0
2018-Apr-14 18:55N 52°04' E 003°21'512.0
2018-Apr-14 18:28N 52°09' E 003°22'612.3
2018-Apr-14 18:01N 52°14' E 003°24'713.0
2018-Apr-14 17:30N 52°21' E 003°26'612.3
2018-Apr-14 17:00N 52°27' E 003°27'812.2
2018-Apr-14 16:21N 52°35' E 003°30'1111.6
2018-Apr-14 15:23N 52°44' E 003°41'611.4
2018-Apr-14 14:53N 52°48' E 003°46'3010.8
2018-Apr-14 12:04N 53°09' E 004°23'211.0
2018-Apr-14 11:52N 53°11' E 004°25'411.4
2018-Apr-14 11:30N 53°15' E 004°28'2410.6
2018-Apr-14 09:15N 53°33' E 004°55'511.4
2018-Apr-14 08:51N 53°35' E 005°02'411.2
2018-Apr-14 08:30N 53°36' E 005°08'611.3
2018-Apr-14 08:00N 53°38' E 005°17'8710.9
2018-Apr-14 00:00N 53°59' E 007°39'710.9
2018-Apr-13 23:23N 53°54' E 007°45'510.8
2018-Apr-13 22:56N 53°52' E 007°53'817.4
2018-Apr-13 22:29N 53°50' E 008°06'918.3
2018-Apr-13 22:00N 53°43' E 008°16'817.1
2018-Apr-13 21:31N 53°38' E 008°27'3 4.9
2018-Apr-13 20:58N 53°36' E 008°31'0 0.0
2018-Apr-13 20:28N 53°36' E 008°31'0 0.0
2018-Apr-13 19:58N 53°36' E 008°31'0 0.0
2018-Apr-13 19:28N 53°36' E 008°31'0 0.0
2018-Apr-13 18:58N 53°36' E 008°31'0 0.0
2018-Apr-13 18:28N 53°36' E 008°31'0 0.0
2018-Apr-13 17:58N 53°36' E 008°31'0 0.0
2018-Apr-13 17:28N 53°36' E 008°31'0 0.0
2018-Apr-13 16:58N 53°36' E 008°31'0 0.0
2018-Apr-13 16:28N 53°36' E 008°31'0 0.0
2018-Apr-13 15:58N 53°36' E 008°31'0 0.0
2018-Apr-13 15:28N 53°36' E 008°31'0 0.0
2018-Apr-13 14:58N 53°36' E 008°31'0 0.0
2018-Apr-13 14:28N 53°36' E 008°31'0 0.0
2018-Apr-13 13:58N 53°36' E 008°31'0 0.0
2018-Apr-13 13:28N 53°36' E 008°31'0 0.0
2018-Apr-13 12:58N 53°36' E 008°31'0 0.0
2018-Apr-13 12:28N 53°36' E 008°31'0 0.0
2018-Apr-13 11:58N 53°36' E 008°31'0 0.0
2018-Apr-13 11:28N 53°36' E 008°31'0 0.0
2018-Apr-13 10:58N 53°36' E 008°31'0 0.0
2018-Apr-13 10:28N 53°36' E 008°31'  
Track history (hours):
 
Tides and Currents Weather Stations Pressure Air Temp Water Temp Dewpoint Dewpoint Depression Visibility Wind Speed Wind Dir Waves Ship Positions

Seago Bremerhaven

Last reported at 2018-Apr-23 10:17 UTC. Time now 2018-Apr-23 11:54 UTC.
Position N 34°31' E 032°39'.

Length 294 m; draft 12.5 m.

Type: Cargo ship. MMSI: 219118000.

Date/timePositionNaut miles runAvg speedWind from/ knotsBaromVisibWave heightAir tempDewpointWater temp
2018-Apr-23 10:17N 34°31' E 032°39'516.9
2018-Apr-23 10:01N 34°31' E 032°33'1517.4
2018-Apr-23 09:10N 34°31' E 032°15'319.0
2018-Apr-23 08:59N 34°31' E 032°11'1019.3
2018-Apr-23 08:29N 34°32' E 031°59'919.1
2018-Apr-23 08:00N 34°32' E 031°48'919.0
2018-Apr-23 07:30N 34°32' E 031°37'1418.9
2018-Apr-23 06:46N 34°33' E 031°20'518.6
2018-Apr-23 06:29N 34°33' E 031°14'1118.7
2018-Apr-23 05:52N 34°33' E 030°60'718.6
2018-Apr-23 05:30N 34°33' E 030°52'1118.4
2018-Apr-23 04:55N 34°34' E 030°38'1518.5
2018-Apr-23 04:08N 34°34' E 030°21'418.9
2018-Apr-23 03:57N 34°34' E 030°16'74019.1
2018-Apr-21 13:09N 36°15' E 015°17'421.4
2018-Apr-21 12:59N 36°15' E 015°13'1222.1
2018-Apr-21 12:26N 36°17' E 014°58'920.9
2018-Apr-21 11:59N 36°18' E 014°47'1120.6
2018-Apr-21 11:28N 36°21' E 014°34'613.6
2018-Apr-21 11:00N 36°23' E 014°26'1020.1
2018-Apr-21 10:30N 36°25' E 014°14'1018.9
2018-Apr-21 10:00N 36°28' E 014°03'1019.7
2018-Apr-21 09:31N 36°31' E 013°51'1019.7
2018-Apr-21 09:00N 36°34' E 013°40'1120.9
2018-Apr-21 08:28N 36°38' E 013°26'1021.3
2018-Apr-21 07:59N 36°40' E 013°14'816.8
2018-Apr-21 07:30N 36°42' E 013°04'1019.1
2018-Apr-21 07:00N 36°45' E 012°53'1019.2
2018-Apr-21 06:30N 36°49' E 012°42'1020.0
2018-Apr-21 06:00N 36°52' E 012°29'918.8
2018-Apr-21 05:30N 36°55' E 012°18'1120.5
2018-Apr-21 04:58N 36°58' E 012°05'1020.5
2018-Apr-21 04:29N 37°02' E 011°54'82719.0
2018-Apr-19 08:57N 36°01' W 005°13'920.3
2018-Apr-19 08:31N 35°58' W 005°23'17218.4
2018-Apr-18 23:08N 36°28' W 008°53'217.9
2018-Apr-18 23:00N 36°29' W 008°56'8817.4
2018-Apr-18 17:55N 37°46' W 009°49'819.7
2018-Apr-18 17:29N 37°55' W 009°51'919.4
2018-Apr-18 17:00N 38°04' W 009°53'1019.2
2018-Apr-18 16:30N 38°13' W 009°57'1019.4
2018-Apr-18 16:01N 38°22' W 009°60'1119.7
2018-Apr-18 15:28N 38°33' W 010°03'919.7
2018-Apr-18 15:00N 38°42' W 010°05'1019.6
2018-Apr-18 14:30N 38°51' W 010°05'919.0
2018-Apr-18 14:00N 39°01' W 010°05'1019.0
2018-Apr-18 13:30N 39°10' W 010°05'1019.3
2018-Apr-18 13:00N 39°20' W 010°05'1019.6
2018-Apr-18 12:30N 39°30' W 010°05'1019.6
2018-Apr-18 11:59N 39°40' W 010°05'28615.9
2018-Apr-17 17:58N 44°11' W 008°02'33615.5
2018-Apr-16 20:15N 49°19' W 004°47'516.6
2018-Apr-16 19:56N 49°21' W 004°40'2815.6
2018-Apr-16 18:10N 49°33' W 004°01'315.2
2018-Apr-16 17:59N 49°34' W 003°58'916.6
2018-Apr-16 17:28N 49°38' W 003°46'817.1
2018-Apr-16 17:00N 49°42' W 003°35'917.6
2018-Apr-16 16:30N 49°47' W 003°24'918.5
2018-Apr-16 16:00N 49°52' W 003°12'1019.7
2018-Apr-16 15:30N 49°57' W 002°59'1020.6
2018-Apr-16 15:00N 50°01' W 002°44'1221.9
2018-Apr-16 14:27N 50°05' W 002°26'1222.6
2018-Apr-16 13:56N 50°08' W 002°08'1022.9
2018-Apr-16 13:31N 50°11' W 001°54'1122.4
2018-Apr-16 13:00N 50°13' W 001°37'1121.6
2018-Apr-16 12:31N 50°16' W 001°21'1120.6
2018-Apr-16 12:00N 50°19' W 001°05'1019.5
2018-Apr-16 11:30N 50°21' W 000°50'1018.5
2018-Apr-16 10:59N 50°24' W 000°35'918.1
2018-Apr-16 10:30N 50°26' W 000°22'917.6
2018-Apr-16 10:00N 50°29' W 000°09'917.5
2018-Apr-16 09:30N 50°31' E 000°04'817.0
2018-Apr-16 09:00N 50°33' E 000°17'816.7
2018-Apr-16 08:30N 50°35' E 000°30'917.1
2018-Apr-16 08:00N 50°39' E 000°42'918.2
2018-Apr-16 07:30N 50°45' E 000°53'1018.6
2018-Apr-16 06:59N 50°50' E 001°05'1219.5
2018-Apr-16 06:21N 50°58' E 001°21'720.2
2018-Apr-16 06:00N 51°03' E 001°29'1019.1
2018-Apr-16 05:30N 51°10' E 001°39'918.4
2018-Apr-16 05:00N 51°16' E 001°50'917.5
2018-Apr-16 04:30N 51°23' E 001°57'815.6
2018-Apr-16 04:00N 51°23' E 002°10'815.7
2018-Apr-16 03:30N 51°22' E 002°22'815.3
2018-Apr-16 03:00N 51°23' E 002°35'713.0
2018-Apr-16 02:30N 51°24' E 002°45'612.2
2018-Apr-16 02:00N 51°25' E 002°54'815.4
2018-Apr-16 01:30N 51°24' E 003°06'714.9
2018-Apr-16 01:00N 51°25' E 003°18'714.0
2018-Apr-16 00:31N 51°25' E 003°30'5 9.4
2018-Apr-16 00:00N 51°26' E 003°37'4 8.2
2018-Apr-15 23:30N 51°24' E 003°43'612.6
2018-Apr-15 23:00N 51°21' E 003°51'611.1
2018-Apr-15 22:30N 51°25' E 003°58'3 6.7
2018-Apr-15 22:00N 51°23' E 004°02'5 9.7
2018-Apr-15 21:30N 51°23' E 004°10'4 8.2
2018-Apr-15 21:00N 51°21' E 004°16'1 1.3
2018-Apr-15 20:26N 51°20' E 004°16'0 0.0
2018-Apr-15 19:58N 51°20' E 004°16'0 0.0
2018-Apr-15 19:29N 51°20' E 004°16'0 0.0
2018-Apr-15 18:55N 51°20' E 004°16'0 0.0
2018-Apr-15 18:28N 51°20' E 004°16'0 0.0
2018-Apr-15 18:01N 51°20' E 004°16'0 0.0
2018-Apr-15 17:30N 51°20' E 004°16'0 0.0
2018-Apr-15 17:00N 51°20' E 004°16'0 0.0
2018-Apr-15 16:30N 51°20' E 004°16'0 0.0
2018-Apr-15 16:00N 51°20' E 004°16'0 0.0
2018-Apr-15 15:28N 51°21' E 004°16'0 0.0
2018-Apr-15 15:00N 51°20' E 004°16'0 0.0
2018-Apr-15 14:30N 51°20' E 004°16'0 0.0
2018-Apr-15 14:00N 51°20' E 004°16'0 0.0
2018-Apr-15 13:31N 51°20' E 004°16'0 0.0
2018-Apr-15 12:53N 51°20' E 004°16'0 0.0
2018-Apr-15 12:30N 51°20' E 004°16'0 0.0
2018-Apr-15 11:56N 51°20' E 004°16'0 0.0
2018-Apr-15 11:29N 51°20' E 004°16'0 0.0
2018-Apr-15 11:00N 51°20' E 004°16'0 0.0
2018-Apr-15 10:30N 51°20' E 004°16'0 0.0
2018-Apr-15 10:00N 51°20' E 004°16'0 0.0
2018-Apr-15 09:30N 51°20' E 004°16'0 0.0
2018-Apr-15 09:00N 51°20' E 004°16'0 0.0
2018-Apr-15 08:30N 51°20' E 004°16'0 0.0
2018-Apr-15 08:00N 51°20' E 004°16'0 0.0
2018-Apr-15 07:31N 51°20' E 004°16'0 0.0
2018-Apr-15 07:00N 51°20' E 004°16'0 0.0
2018-Apr-15 06:31N 51°20' E 004°16'0 0.0
2018-Apr-15 06:00N 51°20' E 004°16'0 0.0
2018-Apr-15 05:29N 51°20' E 004°16'0 0.0
2018-Apr-15 05:00N 51°20' E 004°16'0 0.0
2018-Apr-15 04:31N 51°20' E 004°16'0 0.0
2018-Apr-15 03:59N 51°20' E 004°16'0 0.0
2018-Apr-15 03:31N 51°20' E 004°16'0 0.2
2018-Apr-15 03:00N 51°21' E 004°16'1 2.4
2018-Apr-15 02:30N 51°21' E 004°15'4 7.3
2018-Apr-15 02:00N 51°23' E 004°09'5 9.8
2018-Apr-15 01:30N 51°24' E 004°02'4 7.7
2018-Apr-15 01:00N 51°23' E 003°56'612.6
2018-Apr-15 00:30N 51°21' E 003°46'510.9
2018-Apr-15 00:01N 51°26' E 003°41'612.9
2018-Apr-14 23:31N 51°25' E 003°31'1122.2
2018-Apr-14 23:01N 51°24' E 003°13'918.0
2018-Apr-14 22:31N 51°25' E 002°59'816.8
2018-Apr-14 22:00N 51°32' E 003°07'917.4
2018-Apr-14 21:31N 51°40' E 003°12'5 9.5
2018-Apr-14 20:59N 51°45' E 003°14'4 8.0
2018-Apr-14 20:30N 51°49' E 003°17'4 8.3
2018-Apr-14 19:59N 51°53' E 003°19'5 9.3
2018-Apr-14 19:26N 51°58' E 003°20'611.0
2018-Apr-14 18:55N 52°04' E 003°21'512.0
2018-Apr-14 18:28N 52°09' E 003°22'612.3
2018-Apr-14 18:01N 52°14' E 003°24'713.0
2018-Apr-14 17:30N 52°21' E 003°26'612.3
2018-Apr-14 17:00N 52°27' E 003°27'812.2
2018-Apr-14 16:21N 52°35' E 003°30'1111.6
2018-Apr-14 15:23N 52°44' E 003°41'611.4
2018-Apr-14 14:53N 52°48' E 003°46'3010.8
2018-Apr-14 12:04N 53°09' E 004°23'211.0
2018-Apr-14 11:52N 53°11' E 004°25'411.4
2018-Apr-14 11:30N 53°15' E 004°28'2410.6
2018-Apr-14 09:15N 53°33' E 004°55'511.4
2018-Apr-14 08:51N 53°35' E 005°02'411.2
2018-Apr-14 08:30N 53°36' E 005°08'611.3
2018-Apr-14 08:00N 53°38' E 005°17'8710.9
2018-Apr-14 00:00N 53°59' E 007°39'710.9
2018-Apr-13 23:23N 53°54' E 007°45'510.8
2018-Apr-13 22:56N 53°52' E 007°53'817.4
2018-Apr-13 22:29N 53°50' E 008°06'918.3
2018-Apr-13 22:00N 53°43' E 008°16'817.1
2018-Apr-13 21:31N 53°38' E 008°27'3 4.9
2018-Apr-13 20:58N 53°36' E 008°31'0 0.0
2018-Apr-13 20:28N 53°36' E 008°31'0 0.0
2018-Apr-13 19:58N 53°36' E 008°31'0 0.0
2018-Apr-13 19:28N 53°36' E 008°31'0 0.0
2018-Apr-13 18:58N 53°36' E 008°31'0 0.0
2018-Apr-13 18:28N 53°36' E 008°31'0 0.0
2018-Apr-13 17:58N 53°36' E 008°31'0 0.0
2018-Apr-13 17:28N 53°36' E 008°31'0 0.0
2018-Apr-13 16:58N 53°36' E 008°31'0 0.0
2018-Apr-13 16:28N 53°36' E 008°31'0 0.0
2018-Apr-13 15:58N 53°36' E 008°31'0 0.0
2018-Apr-13 15:28N 53°36' E 008°31'0 0.0
2018-Apr-13 14:58N 53°36' E 008°31'0 0.0
2018-Apr-13 14:28N 53°36' E 008°31'0 0.0
2018-Apr-13 13:58N 53°36' E 008°31'0 0.0
2018-Apr-13 13:28N 53°36' E 008°31'0 0.0
2018-Apr-13 12:58N 53°36' E 008°31'0 0.0
2018-Apr-13 12:28N 53°36' E 008°31'0 0.0
2018-Apr-13 11:58N 53°36' E 008°31'0 0.0
2018-Apr-13 11:28N 53°36' E 008°31'0 0.0
2018-Apr-13 10:58N 53°36' E 008°31'0 0.0
2018-Apr-13 10:28N 53°36' E 008°31'  

Dump ship's entire track history